Time;durP1;ratioP1;P1;durP2;ratioP2;P2;SDS_P1;SDS_P2;PMS_P1;PMS_P2;Temp;Humidity;BMP_temperature;BMP_pressure;BME280_temperature;BME280_humidity;BME280_pressure;Samples;Min_cycle;Max_cycle;Signal;HPM_P1;HPM_P2
2022/06/01 00:00:52;;;;;;;6.03;4.25;;;;;;;15.15;100.00;97725.34;5041533;28;20021;-84
2022/06/01 00:03:18;;;;;;;7.32;4.53;;;;;;;15.12;100.00;97715.00;5049329;28;20048;-84
2022/06/01 00:05:43;;;;;;;8.70;4.55;;;;;;;15.06;100.00;97724.59;5056053;28;20044;-83
2022/06/01 00:08:09;;;;;;;7.72;4.75;;;;;;;15.13;100.00;97724.91;5055177;28;20032;-85
2022/06/01 00:10:35;;;;;;;13.00;4.32;;;;;;;14.92;100.00;97720.09;5037625;28;20129;-82
2022/06/01 00:13:00;;;;;;;7.65;4.10;;;;;;;14.99;100.00;97731.41;5071432;28;20079;-83
2022/06/01 00:15:27;;;;;;;7.97;3.90;;;;;;;14.94;100.00;97734.34;5055829;28;20041;-83
2022/06/01 00:17:53;;;;;;;7.50;4.10;;;;;;;14.74;100.00;97702.00;5054666;28;20025;-82
2022/06/01 00:20:19;;;;;;;5.63;4.38;;;;;;;14.82;100.00;97712.19;5065324;28;20086;-83
2022/06/01 00:22:45;;;;;;;7.90;4.45;;;;;;;14.96;100.00;97731.25;5066095;28;20029;-82
2022/06/01 00:25:13;;;;;;;11.00;5.35;;;;;;;14.93;100.00;97720.91;5051191;28;20017;-82
2022/06/01 00:27:38;;;;;;;7.18;4.38;;;;;;;14.73;100.00;97689.38;5031226;28;20506;-82
2022/06/01 00:30:06;;;;;;;7.10;4.47;;;;;;;14.67;100.00;97701.69;5065019;28;20032;-81
2022/06/01 00:32:31;;;;;;;10.23;4.30;;;;;;;14.82;100.00;97725.94;5067215;28;20032;-82
2022/06/01 00:35:03;;;;;;;9.38;4.63;;;;;;;14.77;100.00;97717.06;5049186;28;20036;-82
2022/06/01 00:37:28;;;;;;;8.13;4.80;;;;;;;14.68;100.00;97714.34;5049722;28;20063;-81
2022/06/01 00:39:54;;;;;;;9.05;5.15;;;;;;;14.70;100.00;97709.31;5049396;28;20029;-83
2022/06/01 00:42:25;;;;;;;8.48;5.05;;;;;;;14.70;100.00;97714.00;5065421;28;20044;-81
2022/06/01 00:44:51;;;;;;;10.18;4.78;;;;;;;14.62;100.00;97718.41;5049272;28;20028;-82
2022/06/01 00:47:19;;;;;;;7.03;5.22;;;;;;;14.63;100.00;97719.22;5065642;28;20017;-83
2022/06/01 00:49:54;;;;;;;7.00;5.18;;;;;;;14.47;100.00;97696.91;5070074;28;20013;-83
2022/06/01 00:52:35;;;;;;;9.25;4.85;;;;;;;14.62;100.00;97701.88;5066984;28;20040;-83
2022/06/01 00:55:07;;;;;;;6.25;4.82;;;;;;;14.64;100.00;97709.81;5066575;28;20025;-84
2022/06/01 00:57:33;;;;;;;6.35;4.07;;;;;;;14.48;100.00;97704.00;5067267;28;20048;-83
2022/06/01 01:00:03;;;;;;;10.35;4.65;;;;;;;14.45;100.00;97707.41;5048570;28;20021;-83
2022/06/01 01:02:30;;;;;;;5.05;4.20;;;;;;;14.36;100.00;97690.13;5066813;28;20017;-83
2022/06/01 01:04:56;;;;;;;8.57;4.57;;;;;;;14.45;100.00;97712.91;5067264;28;20021;-82
2022/06/01 01:07:25;;;;;;;9.75;5.18;;;;;;;14.45;100.00;97723.94;5064142;28;20508;-83
2022/06/01 01:09:51;;;;;;;7.43;5.20;;;;;;;14.41;100.00;97714.69;5048039;28;20091;-82
2022/06/01 01:12:18;;;;;;;7.15;4.75;;;;;;;14.42;100.00;97732.84;5048613;28;20048;-83
2022/06/01 01:14:45;;;;;;;6.93;4.68;;;;;;;14.43;100.00;97735.28;5067084;28;20420;-85
2022/06/01 01:17:12;;;;;;;8.48;5.00;;;;;;;14.33;100.00;97734.78;5049312;28;20047;-86
2022/06/01 01:19:39;;;;;;;7.15;4.53;;;;;;;14.44;100.00;97730.56;5066524;28;20060;-81
2022/06/01 01:22:11;;;;;;;8.50;5.30;;;;;;;14.44;100.00;97730.56;5065173;28;20037;-83
2022/06/01 01:24:50;;;;;;;15.10;6.22;;;;;;;14.17;100.00;97708.88;5065494;28;20032;-81
2022/06/01 01:27:17;;;;;;;27.50;11.98;;;;;;;14.22;100.00;97734.25;5050413;28;20025;-82
2022/06/01 01:29:44;;;;;;;18.67;10.55;;;;;;;14.18;100.00;97727.81;5050789;28;20118;-83
2022/06/01 01:32:12;;;;;;;19.95;10.48;;;;;;;14.16;100.00;97726.53;5051231;28;20040;-82
2022/06/01 01:34:40;;;;;;;18.48;10.13;;;;;;;14.06;100.00;97721.34;5034273;28;20587;-83
2022/06/01 01:37:11;;;;;;;19.40;9.00;;;;;;;14.01;100.00;97729.75;5067705;28;20025;-82
2022/06/01 01:39:37;;;;;;;18.95;9.15;;;;;;;14.05;100.00;97736.22;5045837;28;20049;-83
2022/06/01 01:42:03;;;;;;;17.10;8.50;;;;;;;13.88;100.00;97713.06;5061888;28;20478;-81
2022/06/01 01:44:40;;;;;;;14.05;7.28;;;;;;;13.96;100.00;97736.22;5063142;28;20021;-81
2022/06/01 01:47:06;;;;;;;13.25;7.03;;;;;;;13.99;100.00;97746.56;5065210;28;20036;-84
2022/06/01 01:49:34;;;;;;;19.00;7.85;;;;;;;14.03;100.00;97744.00;5052052;28;20040;-83
2022/06/01 01:52:06;;;;;;;16.38;7.57;;;;;;;13.98;100.00;97742.19;5051414;28;20029;-84
2022/06/01 01:54:39;;;;;;;17.40;7.78;;;;;;;13.92;100.00;97730.56;5054908;28;20025;-83
2022/06/01 01:57:48;;;;;;;12.00;7.05;;;;;;;14.13;100.00;97747.22;5072218;28;20021;-83
2022/06/01 02:00:20;;;;;;;14.35;6.43;;;;;;;14.06;100.00;97746.09;5071696;28;20076;-83
2022/06/01 02:03:05;;;;;;;12.85;7.38;;;;;;;14.09;100.00;97749.03;5069191;28;20088;-84
2022/06/01 02:06:04;;;;;;;13.20;7.43;;;;;;;14.06;100.00;97751.59;5055001;28;20086;-83
2022/06/01 02:08:50;;;;;;;12.65;7.65;;;;;;;13.88;100.00;97740.56;5071907;28;20549;-85
2022/06/01 02:14:28;;;;;;;9.57;5.93;;;;;;;13.86;100.00;97753.84;5071625;28;20102;-82
2022/06/01 02:17:05;;;;;;;19.45;10.07;;;;;;;13.88;100.00;97751.56;5058508;28;20024;-83
2022/06/01 02:19:42;;;;;;;19.50;10.98;;;;;;;13.85;100.00;97757.72;5057672;28;20055;-82
2022/06/01 02:22:11;;;;;;;16.10;9.77;;;;;;;13.70;100.00;97758.19;5058135;28;20043;-84
2022/06/01 02:24:38;;;;;;;23.90;10.75;;;;;;;13.78;100.00;97757.38;5057780;28;20059;-84
2022/06/01 02:27:04;;;;;;;17.77;10.07;;;;;;;13.84;100.00;97766.28;5060971;28;20021;-84
2022/06/01 02:29:36;;;;;;;12.35;7.10;;;;;;;13.80;100.00;97777.13;5044611;28;20124;-85
2022/06/01 02:32:04;;;;;;;11.30;6.45;;;;;;;13.69;100.00;97759.28;5057530;28;20024;-83
2022/06/01 02:34:31;;;;;;;10.73;5.88;;;;;;;13.72;100.00;97777.91;5073036;28;20029;-85
2022/06/01 02:36:59;;;;;;;15.27;5.70;;;;;;;13.77;100.00;97777.75;5036954;28;20021;-81
2022/06/01 02:39:27;;;;;;;12.18;5.90;;;;;;;13.71;100.00;97768.06;5055719;28;20045;-85
2022/06/01 02:42:30;;;;;;;9.38;5.35;;;;;;;13.80;100.00;97768.06;5055781;28;20035;-83
2022/06/01 02:44:58;;;;;;;7.20;4.82;;;;;;;13.87;100.00;97765.66;5055423;28;20496;-83
2022/06/01 02:47:26;;;;;;;12.07;4.85;;;;;;;13.74;100.00;97756.41;5056445;28;20033;-83
2022/06/01 02:49:52;;;;;;;8.40;5.22;;;;;;;13.88;100.00;97784.56;5055857;28;20017;-85
2022/06/01 02:52:18;;;;;;;7.28;5.30;;;;;;;13.81;100.00;97783.44;5054442;28;20041;-85
2022/06/01 02:54:43;;;;;;;9.75;5.57;;;;;;;13.77;100.00;97780.50;5050417;28;20041;-85
2022/06/01 02:57:09;;;;;;;9.02;5.03;;;;;;;13.82;100.00;97785.03;5045935;28;20423;-84
2022/06/01 02:59:35;;;;;;;8.15;4.65;;;;;;;13.77;100.00;97774.19;5038311;28;20002;-82
2022/06/01 03:02:02;;;;;;;6.63;4.68;;;;;;;13.82;100.00;97780.34;5038142;28;20078;-84
2022/06/01 03:04:27;;;;;;;6.85;4.25;;;;;;;13.87;100.00;97793.97;5038040;28;20025;-85
2022/06/01 03:06:53;;;;;;;6.60;4.57;;;;;;;14.00;100.00;97797.72;5039611;28;20033;-85
2022/06/01 03:09:19;;;;;;;11.68;5.15;;;;;;;13.93;100.00;97783.63;5060364;28;20084;-86
2022/06/01 03:11:48;;;;;;;9.00;5.03;;;;;;;13.99;100.00;97787.00;5075857;28;20379;-86
2022/06/01 03:14:14;;;;;;;9.15;5.60;;;;;;;14.04;100.00;97784.09;5060267;28;20021;-87
2022/06/01 03:16:41;;;;;;;7.28;4.35;;;;;;;13.87;100.00;97757.41;5060861;28;20041;-85
2022/06/01 03:19:06;;;;;;;6.28;4.50;;;;;;;14.07;100.00;97780.69;5060785;28;20045;-85
2022/06/01 03:21:32;;;;;;;6.22;4.53;;;;;;;14.11;100.00;97787.19;5060751;28;20067;-87
2022/06/01 03:23:57;;;;;;;7.90;5.18;;;;;;;14.10;100.00;97771.81;5077723;28;20032;-86
2022/06/01 03:26:23;;;;;;;9.90;5.10;;;;;;;14.32;100.00;97788.97;5041931;28;20032;-85
2022/06/01 03:28:49;;;;;;;7.47;4.75;;;;;;;14.48;100.00;97789.34;5057898;28;20051;-84
2022/06/01 03:31:17;;;;;;;8.55;5.63;;;;;;;14.51;100.00;97772.16;5075059;28;20539;-84
2022/06/01 03:33:43;;;;;;;7.63;4.95;;;;;;;14.95;100.00;97799.31;5057186;28;20056;-84
2022/06/01 03:36:11;;;;;;;11.07;6.05;;;;;;;15.28;100.00;97790.47;5056130;28;20001;-86
2022/06/01 03:38:37;;;;;;;7.55;4.93;;;;;;;15.80;100.00;97810.38;5056338;28;20004;-84
2022/06/01 03:41:03;;;;;;;9.68;5.30;;;;;;;15.86;100.00;97820.06;5057006;28;20025;-83
2022/06/01 03:43:28;;;;;;;7.82;4.10;;;;;;;15.88;100.00;97823.34;5021853;28;20029;-84
2022/06/01 03:45:59;;;;;;;8.93;3.75;;;;;;;16.01;100.00;97817.56;5055279;28;20077;-85
2022/06/01 03:48:30;;;;;;;12.23;5.43;;;;;;;16.05;100.00;97815.75;5039319;28;20029;-84
2022/06/01 03:51:26;;;;;;;6.28;4.20;;;;;;;16.54;100.00;97799.47;5050084;28;20481;-84
2022/06/01 03:53:53;;;;;;;6.90;4.47;;;;;;;17.09;100.00;97812.97;5055573;28;20064;-83
2022/06/01 03:56:22;;;;;;;8.52;4.10;;;;;;;17.78;100.00;97818.53;5056094;28;20086;-83
2022/06/01 03:58:49;;;;;;;6.47;4.13;;;;;;;18.24;96.58;97821.94;5055720;28;20029;-86
2022/06/01 04:01:15;;;;;;;7.38;4.28;;;;;;;18.67;94.00;97813.78;5056041;28;20119;-83
2022/06/01 04:03:40;;;;;;;6.25;4.43;;;;;;;18.85;91.99;97815.13;5039523;28;20044;-84
2022/06/01 04:06:05;;;;;;;8.07;4.47;;;;;;;18.04;95.11;97796.03;5073882;28;20021;-85
2022/06/01 04:09:05;;;;;;;8.40;3.75;;;;;;;17.82;97.20;97800.09;5056137;28;20061;-85
2022/06/01 04:11:32;;;;;;;9.55;4.60;;;;;;;17.93;96.98;97803.19;5045265;28;20065;-84
2022/06/01 04:13:57;;;;;;;8.20;3.80;;;;;;;17.82;97.11;97822.22;5054956;28;20088;-76
2022/06/01 04:16:23;;;;;;;10.07;4.95;;;;;;;17.97;96.11;97835.38;5054505;28;20040;-82
2022/06/01 04:19:03;;;;;;;7.43;3.50;;;;;;;18.49;91.51;97829.06;5052317;28;20037;-85
2022/06/01 04:24:41;;;;;;;7.35;4.35;;;;;;;18.33;90.03;97806.81;5023546;28;20033;-84
2022/06/01 04:27:58;;;;;;;;;;;;;;;;;;;;;
2022/06/01 04:30:24;;;;;;;7.10;4.07;;;;;;;17.58;97.49;97855.38;5051653;28;20718;-77
2022/06/01 04:32:52;;;;;;;5.22;3.95;;;;;;;17.33;99.77;97848.97;5041372;28;20026;-80
2022/06/01 04:35:20;;;;;;;8.15;4.13;;;;;;;17.75;98.42;97852.44;5054184;28;20029;-85
2022/06/01 04:37:46;;;;;;;6.47;4.22;;;;;;;17.41;99.65;97847.28;5035029;28;20026;-72
2022/06/01 04:40:13;;;;;;;8.20;4.70;;;;;;;17.00;100.00;97839.88;5035166;28;20032;-77
2022/06/01 04:42:39;;;;;;;6.07;3.70;;;;;;;16.73;100.00;97838.50;5052453;28;20044;-78
2022/06/01 04:45:07;;;;;;;19.35;3.83;;;;;;;16.67;100.00;97848.13;5035482;28;20032;-81
2022/06/01 04:47:32;;;;;;;7.85;4.05;;;;;;;16.71;100.00;97851.84;5039218;28;20029;-79
2022/06/01 04:49:58;;;;;;;6.80;3.85;;;;;;;16.90;100.00;97848.59;5038795;28;20029;-77
2022/06/01 04:52:24;;;;;;;8.57;4.40;;;;;;;17.61;100.00;97857.47;5053384;28;20029;-75
2022/06/01 04:54:49;;;;;;;7.00;4.53;;;;;;;17.83;97.57;97861.75;5031945;28;20052;-74
2022/06/01 04:57:14;;;;;;;7.55;3.95;;;;;;;17.64;98.53;97862.31;5031590;28;20048;-74
2022/06/01 04:59:40;;;;;;;7.70;4.05;;;;;;;17.56;99.14;97866.81;5032268;28;20398;-76
2022/06/01 05:02:06;;;;;;;8.60;4.07;;;;;;;17.55;99.40;97864.38;5032539;28;20041;-78
2022/06/01 05:04:32;;;;;;;5.85;4.18;;;;;;;17.61;99.70;97863.00;5033804;28;20549;-80
2022/06/01 05:06:58;;;;;;;7.93;5.13;;;;;;;17.67;100.00;97863.59;5047234;28;20113;-80
2022/06/01 05:09:24;;;;;;;6.43;4.32;;;;;;;17.67;100.00;97860.84;5023754;28;20133;-77
2022/06/01 05:11:51;;;;;;;6.90;4.53;;;;;;;17.71;99.18;97865.31;5012273;28;20117;-76
2022/06/01 05:14:16;;;;;;;6.25;4.13;;;;;;;17.75;99.19;97874.56;5012597;28;20136;-80
2022/06/01 05:16:42;;;;;;;7.68;4.43;;;;;;;17.92;98.25;97868.00;5012724;28;20034;-80
2022/06/01 05:19:07;;;;;;;7.50;4.43;;;;;;;18.09;96.44;97893.50;5011594;28;20049;-76
2022/06/01 05:21:33;;;;;;;8.80;4.05;;;;;;;17.92;96.07;97879.06;5013416;28;20026;-82
2022/06/01 05:23:58;;;;;;;7.55;4.70;;;;;;;17.74;97.50;97870.16;5015938;28;20034;-80
2022/06/01 05:26:24;;;;;;;18.15;5.10;;;;;;;17.72;97.94;97883.56;5016636;28;20060;-83
2022/06/01 05:28:49;;;;;;;7.32;4.03;;;;;;;17.78;98.63;97889.66;5034827;28;20034;-82
2022/06/01 05:31:15;;;;;;;6.45;3.90;;;;;;;17.96;98.10;97885.53;5017413;28;20052;-81
2022/06/01 05:33:45;;;;;;;6.53;3.65;;;;;;;18.03;97.86;97886.59;5014991;28;20399;-82
2022/06/01 05:36:13;;;;;;;7.13;3.90;;;;;;;18.05;97.99;97892.56;5013939;28;20034;-81
2022/06/01 05:38:38;;;;;;;9.90;5.13;;;;;;;17.94;97.73;97874.81;5015706;28;20014;-81
2022/06/01 05:41:04;;;;;;;7.28;5.00;;;;;;;18.23;96.59;97878.50;5013189;28;20091;-81
2022/06/01 05:43:30;;;;;;;10.85;4.65;;;;;;;18.32;94.31;97870.88;5011804;28;20399;-81
2022/06/01 05:45:55;;;;;;;6.30;4.10;;;;;;;18.40;92.90;97900.41;5016023;28;20025;-80
2022/06/01 05:48:22;;;;;;;8.30;3.92;;;;;;;18.36;92.00;97905.03;5015029;28;20080;-81
2022/06/01 05:50:47;;;;;;;6.43;4.30;;;;;;;18.44;90.40;97902.16;4997722;28;20479;-81
2022/06/01 05:53:13;;;;;;;8.25;4.13;;;;;;;18.57;89.13;97912.09;5016220;28;20052;-80
2022/06/01 05:55:39;;;;;;;8.15;4.38;;;;;;;18.85;88.42;97909.38;5015541;28;20026;-80
2022/06/01 05:58:15;;;;;;;8.23;4.13;;;;;;;19.11;86.63;97917.25;5015470;28;20053;-80
2022/06/01 06:00:41;;;;;;;10.50;4.60;;;;;;;19.34;86.47;97912.78;5014848;28;20034;-78
2022/06/01 06:03:06;;;;;;;8.88;4.20;;;;;;;19.49;84.30;97919.56;5013548;28;20479;-79
2022/06/01 06:08:26;;;;;;;6.47;3.67;;;;;;;20.08;80.42;97925.91;5024435;28;20040;-79
2022/06/01 06:10:51;;;;;;;5.95;3.80;;;;;;;20.21;78.46;97930.22;5035788;28;20049;-79
2022/06/01 06:13:17;;;;;;;7.15;4.32;;;;;;;20.42;77.83;97934.72;5034153;28;20037;-80
2022/06/01 06:15:42;;;;;;;8.88;3.60;;;;;;;20.87;74.96;97935.00;5038868;28;20096;-81
2022/06/01 06:18:11;;;;;;;5.95;3.95;;;;;;;20.93;75.03;97929.94;5035649;28;20017;-80
2022/06/01 06:20:37;;;;;;;5.32;3.92;;;;;;;20.88;76.04;97936.63;5035631;28;20118;-80
2022/06/01 06:23:03;;;;;;;16.85;5.05;;;;;;;20.49;76.85;97941.25;5035268;28;20493;-81
2022/06/01 06:25:28;;;;;;;8.63;4.20;;;;;;;20.19;76.77;97929.78;5035951;28;20040;-78
2022/06/01 06:27:54;;;;;;;7.43;3.92;;;;;;;20.18;78.34;97944.81;5053619;28;20082;-79
2022/06/01 06:30:19;;;;;;;8.65;3.75;;;;;;;20.63;77.57;97957.47;5053378;28;20032;-81
2022/06/01 06:32:45;;;;;;;9.35;3.20;;;;;;;20.61;77.66;97943.91;5051475;28;20029;-81
2022/06/01 06:35:11;;;;;;;9.43;3.42;;;;;;;20.57;76.30;97950.56;5034629;28;20028;-78
2022/06/01 06:37:36;;;;;;;6.00;3.80;;;;;;;20.39;76.03;97952.94;5052858;28;20067;-79
2022/06/01 06:40:03;;;;;;;5.32;3.17;;;;;;;20.37;77.50;97944.13;5035034;28;20115;-81
2022/06/01 06:42:28;;;;;;;7.97;3.60;;;;;;;20.72;75.00;97952.53;5034432;28;20469;-79
2022/06/01 06:44:53;;;;;;;9.38;3.88;;;;;;;20.80;74.13;97954.28;5035667;28;20036;-78
2022/06/01 06:47:19;;;;;;;9.25;3.33;;;;;;;21.11;73.41;97954.22;5067602;28;20081;-84
2022/06/01 06:49:45;;;;;;;8.80;4.10;;;;;;;21.41;72.17;97959.25;5054188;28;20005;-84
2022/06/01 06:52:10;;;;;;;7.03;3.45;;;;;;;21.58;71.03;97947.69;5050287;28;20035;-86
2022/06/01 06:54:35;;;;;;;5.70;2.70;;;;;;;21.53;70.61;97957.13;5070690;28;20033;-84
2022/06/01 06:57:01;;;;;;;6.13;3.38;;;;;;;21.70;70.77;97948.31;5053487;28;20033;-85
2022/06/01 06:59:26;;;;;;;8.05;3.65;;;;;;;21.94;69.80;97960.31;5072118;28;20033;-85
2022/06/01 07:01:53;;;;;;;6.43;3.15;;;;;;;22.00;68.10;97962.44;5073442;28;20036;-84
2022/06/01 07:04:18;;;;;;;8.43;3.17;;;;;;;21.72;68.82;97953.50;5075350;28;20502;-84
2022/06/01 07:06:44;;;;;;;7.10;3.65;;;;;;;21.86;69.59;97942.66;5076250;28;20040;-84
2022/06/01 07:09:10;;;;;;;8.93;3.20;;;;;;;22.31;69.29;97953.84;5075778;28;20021;-84
2022/06/01 07:11:35;;;;;;;16.30;3.92;;;;;;;22.22;69.25;97935.75;5075364;28;20028;-84
2022/06/01 07:14:01;;;;;;;6.18;3.25;;;;;;;22.53;68.67;97949.41;5076247;28;20054;-83
2022/06/01 07:16:32;;;;;;;9.05;3.45;;;;;;;22.38;68.42;97951.19;5058439;28;20036;-84
2022/06/01 07:18:59;;;;;;;9.57;4.00;;;;;;;22.22;68.85;97946.91;5056407;28;20060;-82
2022/06/01 07:21:26;;;;;;;8.10;3.58;;;;;;;22.10;68.39;97952.66;5056964;28;20121;-84
2022/06/01 07:23:52;;;;;;;7.65;3.22;;;;;;;22.22;66.50;97950.50;5046007;28;20024;-84
2022/06/01 07:26:25;;;;;;;6.25;3.10;;;;;;;22.25;66.21;97944.19;5057841;28;20030;-81
2022/06/01 07:28:51;;;;;;;8.48;3.20;;;;;;;22.28;66.43;97937.84;5039711;28;20113;-82
2022/06/01 07:31:18;;;;;;;5.38;3.33;;;;;;;22.36;66.11;97947.16;5042048;28;20057;-84
2022/06/01 07:33:44;;;;;;;7.53;3.08;;;;;;;22.81;65.12;97947.09;5048411;28;20022;-84
2022/06/01 07:36:12;;;;;;;6.85;3.42;;;;;;;23.12;63.76;97937.56;5060333;28;20026;-84
2022/06/01 07:44:22;;;;;;;5.90;3.28;;;;;;;23.10;63.41;97956.69;5054777;28;20036;-82
2022/06/01 07:46:48;;;;;;;6.68;3.85;;;;;;;23.63;61.52;97951.03;5068643;28;20059;-82
2022/06/01 07:49:17;;;;;;;13.15;3.67;;;;;;;23.95;60.65;97957.78;5053015;28;20022;-85
2022/06/01 07:51:42;;;;;;;5.63;3.42;;;;;;;24.28;59.31;97952.16;5061917;28;20009;-80
2022/06/01 07:54:08;;;;;;;5.55;3.35;;;;;;;24.28;59.76;97957.72;5070282;28;20077;-83
2022/06/01 07:56:33;;;;;;;6.93;3.97;;;;;;;24.16;59.73;97946.84;5044355;28;20028;-85
2022/06/01 07:58:59;;;;;;;6.05;3.63;;;;;;;24.79;58.13;97951.38;5052524;28;20046;-84
2022/06/01 08:01:27;;;;;;;10.52;3.67;;;;;;;25.53;55.81;97955.44;5043909;28;20030;-84
2022/06/01 08:03:56;;;;;;;6.03;3.15;;;;;;;26.09;54.55;97956.84;5043035;28;20041;-82
2022/06/01 08:06:23;;;;;;;5.65;3.45;;;;;;;26.48;53.04;97957.72;5033721;28;20097;-82
2022/06/01 08:08:48;;;;;;;8.27;3.88;;;;;;;28.23;48.37;97965.31;5061212;28;20005;-74
2022/06/01 08:11:13;;;;;;;6.32;3.53;;;;;;;28.84;46.96;97960.06;5045757;28;20090;-74
2022/06/01 08:13:39;;;;;;;8.63;3.53;;;;;;;28.85;45.99;97959.63;5041685;28;20037;-73
2022/06/01 08:16:04;;;;;;;5.10;3.47;;;;;;;29.23;45.41;97949.19;5040249;28;20027;-74
2022/06/01 08:18:30;;;;;;;8.27;3.05;;;;;;;31.11;39.96;97958.66;5042269;28;20060;-74
2022/06/01 08:20:55;;;;;;;7.47;3.72;;;;;;;32.58;36.79;97956.81;5047159;28;20025;-75
2022/06/01 08:23:24;;;;;;;7.30;3.53;;;;;;;33.50;33.98;97957.28;5041286;28;20096;-76
2022/06/01 08:25:50;;;;;;;6.80;3.60;;;;;;;34.28;31.96;97955.00;5042434;28;20107;-74
2022/06/01 08:28:16;;;;;;;6.95;3.15;;;;;;;34.14;32.70;97964.00;5043012;28;20037;-75
2022/06/01 08:30:41;;;;;;;5.57;3.20;;;;;;;34.61;31.63;97962.09;5043391;28;20018;-76
2022/06/01 08:33:08;;;;;;;8.57;3.42;;;;;;;33.76;32.21;97955.34;5046167;28;20087;-77
2022/06/01 08:35:36;;;;;;;6.63;3.30;;;;;;;33.28;33.34;97948.56;5032535;28;20024;-78
2022/06/01 08:38:03;;;;;;;6.78;3.60;;;;;;;32.44;34.68;97954.31;5037069;28;20022;-77
2022/06/01 08:40:34;;;;;;;10.65;3.78;;;;;;;32.65;34.93;97948.16;5027297;28;20556;-77
2022/06/01 08:43:10;;;;;;;6.95;3.65;;;;;;;34.21;32.24;97949.56;5039117;28;20037;-77
2022/06/01 08:45:36;;;;;;;9.25;3.35;;;;;;;33.55;32.83;97953.88;5036770;28;20036;-78
2022/06/01 08:48:03;;;;;;;8.48;3.75;;;;;;;33.52;32.78;97949.09;5038674;28;20084;-79
2022/06/01 08:50:38;;;;;;;10.45;3.95;;;;;;;32.32;34.02;97943.69;5034247;28;20355;-78
2022/06/01 08:53:06;;;;;;;9.05;4.28;;;;;;;32.92;33.63;97947.91;5021274;28;20034;-76
2022/06/01 08:55:47;;;;;;;6.40;3.40;;;;;;;33.20;33.20;97949.22;5031937;28;20099;-76
2022/06/01 08:58:19;;;;;;;8.13;3.83;;;;;;;32.67;33.82;97940.00;5047116;28;20086;-75
2022/06/01 09:00:58;;;;;;;7.25;4.28;;;;;;;31.40;36.03;97936.31;5012482;28;20057;-74
2022/06/01 09:03:45;;;;;;;7.15;3.70;;;;;;;30.88;36.58;97936.06;5020005;28;20091;-74
2022/06/01 09:06:36;;;;;;;7.30;4.50;;;;;;;32.23;34.67;97937.81;5046027;28;20385;-77
2022/06/01 09:09:10;;;;;;;8.18;3.90;;;;;;;30.42;38.41;97931.97;5025161;28;20446;-74
2022/06/01 09:11:39;;;;;;;5.85;4.10;;;;;;;30.91;36.38;97935.19;5048254;28;20481;-73
2022/06/01 09:14:10;;;;;;;8.77;4.20;;;;;;;32.06;35.14;97936.19;5046385;28;20028;-72
2022/06/01 09:16:43;;;;;;;8.60;4.03;;;;;;;33.03;33.47;97933.41;5045580;28;20033;-71
2022/06/01 09:19:14;;;;;;;6.18;3.90;;;;;;;33.72;32.91;97944.09;5033033;28;20190;-73
2022/06/01 09:24:31;;;;;;;8.77;4.60;;;;;;;32.10;34.76;97923.56;5046867;28;20028;-76
2022/06/01 09:27:00;;;;;;;8.27;4.32;;;;;;;33.68;32.18;97931.25;5031458;28;20033;-74
2022/06/01 09:29:28;;;;;;;8.70;4.10;;;;;;;33.83;32.05;97927.53;5015166;28;20040;-73
2022/06/01 09:32:00;;;;;;;8.20;4.30;;;;;;;33.29;33.05;97929.50;5040147;28;20462;-74
2022/06/01 09:34:47;;;;;;;6.93;4.10;;;;;;;32.82;33.48;97923.44;5046458;28;20021;-75
2022/06/01 09:37:25;;;;;;;8.55;4.28;;;;;;;32.76;34.02;97923.19;5047888;28;20041;-73
2022/06/01 09:39:56;;;;;;;5.82;3.85;;;;;;;31.49;35.57;97920.38;5029511;28;20506;-74
2022/06/01 09:42:34;;;;;;;6.72;4.32;;;;;;;30.92;36.21;97925.50;5043477;28;20123;-73
2022/06/01 09:45:02;;;;;;;6.57;4.20;;;;;;;31.69;35.26;97918.38;5034725;28;20110;-75
2022/06/01 09:47:37;;;;;;;7.65;4.50;;;;;;;29.80;38.37;97923.16;5047383;28;20041;-75
2022/06/01 09:50:07;;;;;;;8.90;4.90;;;;;;;29.00;39.40;97918.03;5029055;28;20167;-74
2022/06/01 09:52:39;;;;;;;7.07;4.70;;;;;;;29.11;39.34;97921.53;5045895;28;20051;-76
2022/06/01 09:55:25;;;;;;;8.45;4.60;;;;;;;29.41;39.28;97907.56;5032368;28;20049;-75
2022/06/01 09:58:09;;;;;;;9.32;4.80;;;;;;;28.99;40.17;97907.97;5032919;28;20024;-73
2022/06/01 10:06:31;;;;;;;7.05;3.92;;;;;;;30.46;37.83;97906.50;5040256;28;20039;-74
2022/06/01 10:09:03;;;;;;;7.80;4.35;;;;;;;31.26;35.90;97909.13;5028035;28;20029;-76
2022/06/01 10:11:40;;;;;;;8.32;3.92;;;;;;;31.44;34.83;97905.94;5031114;28;20025;-74
2022/06/01 10:14:16;;;;;;;4.65;3.72;;;;;;;30.38;35.29;97900.16;5011598;28;20140;-72
2022/06/01 10:16:50;;;;;;;6.88;4.35;;;;;;;29.88;36.88;97902.13;5033924;28;20082;-71
2022/06/01 10:19:24;;;;;;;6.47;4.10;;;;;;;32.00;33.60;97901.09;5036089;28;20044;-72
2022/06/01 10:21:55;;;;;;;9.55;4.10;;;;;;;31.29;34.73;97899.78;5038981;28;20072;-72
2022/06/01 10:24:28;;;;;;;6.95;3.60;;;;;;;31.65;34.17;97900.66;5032606;28;20025;-73
2022/06/01 10:26:58;;;;;;;7.93;3.72;;;;;;;31.86;33.69;97907.09;5033607;28;20028;-72
2022/06/01 10:30:03;;;;;;;6.88;4.63;;;;;;;30.80;36.04;97905.09;5036978;28;20556;-74
2022/06/01 10:32:36;;;;;;;6.82;4.15;;;;;;;30.35;37.32;97906.66;5030443;28;20041;-73
2022/06/01 10:35:40;;;;;;;6.75;4.00;;;;;;;28.97;39.16;97891.50;5043023;28;20036;-71
2022/06/01 10:38:17;;;;;;;6.05;3.50;;;;;;;28.79;37.79;97890.09;5018940;28;20049;-73
2022/06/01 10:40:51;;;;;;;6.85;3.35;;;;;;;28.11;39.30;97896.25;5047707;28;20120;-74
2022/06/01 10:43:42;;;;;;;5.25;3.58;;;;;;;27.62;39.90;97893.72;5050319;28;20031;-73
2022/06/01 10:46:23;;;;;;;8.55;4.00;;;;;;;27.13;41.66;97886.25;5048709;28;20044;-74
2022/06/01 10:49:16;;;;;;;7.97;4.22;;;;;;;27.08;41.78;97881.06;5030975;28;20049;-72
2022/06/01 10:51:41;;;;;;;5.30;3.63;;;;;;;27.41;41.48;97880.53;5031320;28;20025;-72
2022/06/01 10:54:20;;;;;;;9.27;3.70;;;;;;;27.72;40.51;97872.38;5041716;28;20025;-73
2022/06/01 10:56:45;;;;;;;5.75;3.30;;;;;;;27.92;41.21;97876.25;5021982;28;20029;-74
2022/06/01 10:59:14;;;;;;;9.07;4.32;;;;;;;28.02;41.45;97869.78;5037047;28;20033;-73
2022/06/01 11:02:04;;;;;;;6.75;3.95;;;;;;;28.00;41.42;97869.38;5019992;28;20037;-73
2022/06/01 11:04:44;;;;;;;7.38;3.45;;;;;;;27.95;41.09;97861.38;5001341;28;20141;-73
2022/06/01 11:07:37;;;;;;;7.93;4.25;;;;;;;27.28;42.37;97859.72;5017604;28;20436;-76
2022/06/01 11:10:05;;;;;;;6.82;4.10;;;;;;;27.55;42.63;97860.03;5036441;28;20028;-72
2022/06/01 11:12:46;;;;;;;7.20;3.90;;;;;;;27.94;41.59;97859.78;5029828;28;20037;-72
2022/06/01 11:15:36;;;;;;;5.43;3.75;;;;;;;27.62;41.60;97855.16;5036598;28;20163;-73
2022/06/01 11:18:04;;;;;;;6.80;4.15;;;;;;;27.78;41.85;97853.88;5038088;28;20029;-72
2022/06/01 11:20:48;;;;;;;6.85;4.05;;;;;;;27.69;42.49;97848.72;5018771;28;20050;-74
2022/06/01 11:23:40;;;;;;;7.90;3.97;;;;;;;27.46;43.23;97848.44;5039531;28;20021;-74
2022/06/01 11:26:27;;;;;;;8.35;3.95;;;;;;;27.89;43.09;97851.78;5031181;28;20081;-74
2022/06/01 11:28:55;;;;;;;5.85;3.70;;;;;;;27.65;43.01;97850.72;5044197;28;20033;-73
2022/06/01 11:31:27;;;;;;;10.98;4.35;;;;;;;27.02;44.50;97844.16;5044379;28;20036;-73
2022/06/01 11:34:04;;;;;;;6.07;3.92;;;;;;;27.30;43.98;97850.88;5040351;28;20039;-75
2022/06/01 11:36:50;;;;;;;4.90;3.60;;;;;;;27.21;44.28;97842.09;5039650;28;20024;-75
2022/06/01 11:39:40;;;;;;;7.43;4.05;;;;;;;27.60;43.96;97837.09;5042502;28;20025;-74
2022/06/01 11:42:21;;;;;;;5.88;3.78;;;;;;;28.01;42.91;97840.84;5046330;28;20063;-74
2022/06/01 11:45:00;;;;;;;4.85;3.70;;;;;;;28.66;41.61;97833.50;5043541;28;20128;-74
2022/06/01 11:47:30;;;;;;;5.78;4.00;;;;;;;29.27;40.32;97836.44;5026949;28;20390;-75
2022/06/01 11:50:17;;;;;;;5.70;3.40;;;;;;;29.64;38.76;97834.31;5044171;28;20025;-74
2022/06/01 11:53:00;;;;;;;7.53;3.53;;;;;;;28.94;40.52;97835.19;5056547;28;20070;-73
2022/06/01 11:55:26;;;;;;;5.55;3.70;;;;;;;27.92;42.66;97826.44;5062979;28;20033;-72
2022/06/01 11:58:06;;;;;;;5.28;4.18;;;;;;;27.48;43.47;97821.50;5051845;28;20032;-73
2022/06/01 12:00:39;;;;;;;7.38;3.60;;;;;;;27.91;43.17;97812.81;5052237;28;20039;-74
2022/06/01 12:03:19;;;;;;;7.65;3.72;;;;;;;27.59;43.96;97813.81;5051746;28;20024;-74
2022/06/01 12:06:06;;;;;;;7.40;4.15;;;;;;;28.20;42.53;97814.19;5044890;28;20029;-73
2022/06/01 12:08:39;;;;;;;4.55;3.03;;;;;;;28.08;42.69;97801.44;5044552;28;20033;-74